sensor_id;sensor_type;location;lat;lon;timestamp;temperature;humidity
75961;SHT30;64644;48.914;2.254;2023-07-29T00:01:58;22.31;76.58
75961;SHT30;64644;48.914;2.254;2023-07-29T00:04:23;22.35;76.71
75961;SHT30;64644;48.914;2.254;2023-07-29T00:06:48;22.37;76.68
75961;SHT30;64644;48.914;2.254;2023-07-29T00:09:14;22.34;76.32
75961;SHT30;64644;48.914;2.254;2023-07-29T00:11:39;22.35;76.15
75961;SHT30;64644;48.914;2.254;2023-07-29T00:14:04;22.37;76.15
75961;SHT30;64644;48.914;2.254;2023-07-29T00:16:30;22.37;76.17
75961;SHT30;64644;48.914;2.254;2023-07-29T00:18:55;22.37;76.18
75961;SHT30;64644;48.914;2.254;2023-07-29T00:21:20;22.37;76.08
75961;SHT30;64644;48.914;2.254;2023-07-29T00:23:46;22.34;76.23
75961;SHT30;64644;48.914;2.254;2023-07-29T00:26:11;22.32;76.22
75961;SHT30;64644;48.914;2.254;2023-07-29T00:28:36;22.30;76.18
75961;SHT30;64644;48.914;2.254;2023-07-29T00:31:02;22.28;76.39
75961;SHT30;64644;48.914;2.254;2023-07-29T00:33:27;22.27;76.39
75961;SHT30;64644;48.914;2.254;2023-07-29T00:35:53;22.24;75.89
75961;SHT30;64644;48.914;2.254;2023-07-29T00:38:18;22.25;75.51
75961;SHT30;64644;48.914;2.254;2023-07-29T00:40:44;22.22;75.20
75961;SHT30;64644;48.914;2.254;2023-07-29T00:43:09;22.22;74.99
75961;SHT30;64644;48.914;2.254;2023-07-29T00:45:35;22.21;74.88
75961;SHT30;64644;48.914;2.254;2023-07-29T00:48:02;22.22;74.81
75961;SHT30;64644;48.914;2.254;2023-07-29T00:50:28;22.24;74.75
75961;SHT30;64644;48.914;2.254;2023-07-29T00:52:55;22.22;74.71
75961;SHT30;64644;48.914;2.254;2023-07-29T00:55:21;22.20;74.47
75961;SHT30;64644;48.914;2.254;2023-07-29T00:57:47;22.21;74.39
75961;SHT30;64644;48.914;2.254;2023-07-29T01:00:15;22.17;74.31
75961;SHT30;64644;48.914;2.254;2023-07-29T01:02:42;22.14;74.18
75961;SHT30;64644;48.914;2.254;2023-07-29T01:05:08;22.10;74.04
75961;SHT30;64644;48.914;2.254;2023-07-29T01:07:49;22.08;74.07
75961;SHT30;64644;48.914;2.254;2023-07-29T01:15:28;22.01;73.95
75961;SHT30;64644;48.914;2.254;2023-07-29T01:18:01;21.96;73.64
75961;SHT30;64644;48.914;2.254;2023-07-29T01:20:29;21.92;73.57
75961;SHT30;64644;48.914;2.254;2023-07-29T01:22:56;21.89;73.59
75961;SHT30;64644;48.914;2.254;2023-07-29T01:25:22;21.86;73.69
75961;SHT30;64644;48.914;2.254;2023-07-29T01:27:49;21.80;73.51
75961;SHT30;64644;48.914;2.254;2023-07-29T01:30:16;21.73;73.35
75961;SHT30;64644;48.914;2.254;2023-07-29T01:32:57;21.70;73.35
75961;SHT30;64644;48.914;2.254;2023-07-29T01:35:31;21.70;73.34
75961;SHT30;64644;48.914;2.254;2023-07-29T01:38:13;21.65;73.27
75961;SHT30;64644;48.914;2.254;2023-07-29T01:40:40;21.61;73.11
75961;SHT30;64644;48.914;2.254;2023-07-29T01:43:06;21.59;73.01
75961;SHT30;64644;48.914;2.254;2023-07-29T01:45:33;21.55;73.07
75961;SHT30;64644;48.914;2.254;2023-07-29T01:48:03;21.53;73.09
75961;SHT30;64644;48.914;2.254;2023-07-29T01:50:28;21.53;73.03
75961;SHT30;64644;48.914;2.254;2023-07-29T01:52:54;21.53;73.08
75961;SHT30;64644;48.914;2.254;2023-07-29T01:55:19;21.49;73.04
75961;SHT30;64644;48.914;2.254;2023-07-29T01:57:44;21.51;73.06
75961;SHT30;64644;48.914;2.254;2023-07-29T02:00:10;21.51;73.16
75961;SHT30;64644;48.914;2.254;2023-07-29T02:02:36;21.49;73.11
75961;SHT30;64644;48.914;2.254;2023-07-29T02:05:01;21.51;73.09
75961;SHT30;64644;48.914;2.254;2023-07-29T02:07:26;21.44;73.05
75961;SHT30;64644;48.914;2.254;2023-07-29T02:09:52;21.41;73.07
75961;SHT30;64644;48.914;2.254;2023-07-29T02:12:18;21.39;73.00
75961;SHT30;64644;48.914;2.254;2023-07-29T02:14:43;21.39;73.04
75961;SHT30;64644;48.914;2.254;2023-07-29T02:17:09;21.38;73.03
75961;SHT30;64644;48.914;2.254;2023-07-29T02:19:34;21.39;73.06
75961;SHT30;64644;48.914;2.254;2023-07-29T02:22:00;21.34;72.98
75961;SHT30;64644;48.914;2.254;2023-07-29T02:24:25;21.32;72.95
75961;SHT30;64644;48.914;2.254;2023-07-29T02:26:50;21.28;72.91
75961;SHT30;64644;48.914;2.254;2023-07-29T02:29:16;21.24;72.97
75961;SHT30;64644;48.914;2.254;2023-07-29T02:31:41;21.25;72.97
75961;SHT30;64644;48.914;2.254;2023-07-29T02:34:07;21.23;73.00
75961;SHT30;64644;48.914;2.254;2023-07-29T02:36:32;21.21;72.97
75961;SHT30;64644;48.914;2.254;2023-07-29T02:38:57;21.20;73.05
75961;SHT30;64644;48.914;2.254;2023-07-29T02:41:23;21.14;73.03
75961;SHT30;64644;48.914;2.254;2023-07-29T02:43:49;21.10;72.99
75961;SHT30;64644;48.914;2.254;2023-07-29T02:46:15;21.06;73.03
75961;SHT30;64644;48.914;2.254;2023-07-29T02:48:42;21.03;73.08
75961;SHT30;64644;48.914;2.254;2023-07-29T02:51:07;21.03;73.24
75961;SHT30;64644;48.914;2.254;2023-07-29T02:53:32;21.01;73.12
75961;SHT30;64644;48.914;2.254;2023-07-29T02:55:57;21.00;73.18
75961;SHT30;64644;48.914;2.254;2023-07-29T02:58:23;20.96;73.17
75961;SHT30;64644;48.914;2.254;2023-07-29T03:00:48;20.90;73.23
75961;SHT30;64644;48.914;2.254;2023-07-29T03:03:14;20.90;73.29
75961;SHT30;64644;48.914;2.254;2023-07-29T03:05:39;20.87;73.35
75961;SHT30;64644;48.914;2.254;2023-07-29T03:08:05;20.87;73.36
75961;SHT30;64644;48.914;2.254;2023-07-29T03:10:30;20.86;73.46
75961;SHT30;64644;48.914;2.254;2023-07-29T03:12:56;20.90;73.52
75961;SHT30;64644;48.914;2.254;2023-07-29T03:15:25;20.94;73.53
75961;SHT30;64644;48.914;2.254;2023-07-29T03:17:51;20.91;73.44
75961;SHT30;64644;48.914;2.254;2023-07-29T03:20:16;20.94;73.49
75961;SHT30;64644;48.914;2.254;2023-07-29T03:22:43;20.90;73.46
75961;SHT30;64644;48.914;2.254;2023-07-29T03:25:08;20.86;73.49
75961;SHT30;64644;48.914;2.254;2023-07-29T03:27:34;20.87;73.52
75961;SHT30;64644;48.914;2.254;2023-07-29T03:30:02;20.87;73.53
75961;SHT30;64644;48.914;2.254;2023-07-29T03:32:27;20.89;73.49
75961;SHT30;64644;48.914;2.254;2023-07-29T03:34:52;20.82;73.47
75961;SHT30;64644;48.914;2.254;2023-07-29T03:37:18;20.79;73.59
75961;SHT30;64644;48.914;2.254;2023-07-29T03:39:43;20.79;73.60
75961;SHT30;64644;48.914;2.254;2023-07-29T03:42:08;20.75;73.66
75961;SHT30;64644;48.914;2.254;2023-07-29T03:44:34;20.75;73.61
75961;SHT30;64644;48.914;2.254;2023-07-29T03:47:00;20.69;73.64
75961;SHT30;64644;48.914;2.254;2023-07-29T03:49:26;20.65;73.66
75961;SHT30;64644;48.914;2.254;2023-07-29T03:51:51;20.61;73.73
75961;SHT30;64644;48.914;2.254;2023-07-29T03:54:16;20.56;73.80
75961;SHT30;64644;48.914;2.254;2023-07-29T03:56:42;20.55;73.90
75961;SHT30;64644;48.914;2.254;2023-07-29T03:59:07;20.55;74.00
75961;SHT30;64644;48.914;2.254;2023-07-29T04:01:32;20.53;73.94
75961;SHT30;64644;48.914;2.254;2023-07-29T04:03:58;20.52;74.01
75961;SHT30;64644;48.914;2.254;2023-07-29T04:06:24;20.51;74.06
75961;SHT30;64644;48.914;2.254;2023-07-29T04:08:50;20.49;74.12
75961;SHT30;64644;48.914;2.254;2023-07-29T04:11:15;20.48;74.12
75961;SHT30;64644;48.914;2.254;2023-07-29T04:13:41;20.48;74.16
75961;SHT30;64644;48.914;2.254;2023-07-29T04:16:07;20.45;74.31
75961;SHT30;64644;48.914;2.254;2023-07-29T04:18:32;20.42;74.28
75961;SHT30;64644;48.914;2.254;2023-07-29T04:20:58;20.39;74.27
75961;SHT30;64644;48.914;2.254;2023-07-29T04:23:23;20.39;74.33
75961;SHT30;64644;48.914;2.254;2023-07-29T04:25:48;20.39;74.36
75961;SHT30;64644;48.914;2.254;2023-07-29T04:28:15;20.32;74.32
75961;SHT30;64644;48.914;2.254;2023-07-29T04:30:40;20.32;74.43
75961;SHT30;64644;48.914;2.254;2023-07-29T04:33:06;20.31;74.44
75961;SHT30;64644;48.914;2.254;2023-07-29T04:35:31;20.31;74.57
75961;SHT30;64644;48.914;2.254;2023-07-29T04:37:56;20.28;74.58
75961;SHT30;64644;48.914;2.254;2023-07-29T04:40:22;20.30;74.48
75961;SHT30;64644;48.914;2.254;2023-07-29T04:42:48;20.25;74.43
75961;SHT30;64644;48.914;2.254;2023-07-29T04:45:13;20.25;74.56
75961;SHT30;64644;48.914;2.254;2023-07-29T04:47:39;20.25;74.50
75961;SHT30;64644;48.914;2.254;2023-07-29T04:50:04;20.24;74.49
75961;SHT30;64644;48.914;2.254;2023-07-29T04:52:31;20.27;74.48
75961;SHT30;64644;48.914;2.254;2023-07-29T04:54:56;20.27;74.56
75961;SHT30;64644;48.914;2.254;2023-07-29T04:57:22;20.27;74.52
75961;SHT30;64644;48.914;2.254;2023-07-29T04:59:47;20.30;74.42
75961;SHT30;64644;48.914;2.254;2023-07-29T05:02:12;20.31;74.42
75961;SHT30;64644;48.914;2.254;2023-07-29T05:04:38;20.32;74.53
75961;SHT30;64644;48.914;2.254;2023-07-29T05:07:03;20.31;74.33
75961;SHT30;64644;48.914;2.254;2023-07-29T05:09:28;20.32;74.38
75961;SHT30;64644;48.914;2.254;2023-07-29T05:11:54;20.32;74.25
75961;SHT30;64644;48.914;2.254;2023-07-29T05:14:19;20.34;74.27
75961;SHT30;64644;48.914;2.254;2023-07-29T05:16:44;20.32;74.19
75961;SHT30;64644;48.914;2.254;2023-07-29T05:19:10;20.37;74.32
75961;SHT30;64644;48.914;2.254;2023-07-29T05:21:37;20.37;74.19
75961;SHT30;64644;48.914;2.254;2023-07-29T05:24:03;20.32;74.18
75961;SHT30;64644;48.914;2.254;2023-07-29T05:26:28;20.32;74.19
75961;SHT30;64644;48.914;2.254;2023-07-29T05:28:54;20.37;74.16
75961;SHT30;64644;48.914;2.254;2023-07-29T05:31:19;20.35;74.16
75961;SHT30;64644;48.914;2.254;2023-07-29T05:33:44;20.39;74.16
75961;SHT30;64644;48.914;2.254;2023-07-29T05:36:10;20.41;74.21
75961;SHT30;64644;48.914;2.254;2023-07-29T05:38:35;20.45;74.14
75961;SHT30;64644;48.914;2.254;2023-07-29T05:41:00;20.44;74.10
75961;SHT30;64644;48.914;2.254;2023-07-29T05:43:26;20.48;74.07
75961;SHT30;64644;48.914;2.254;2023-07-29T05:45:52;20.47;73.93
75961;SHT30;64644;48.914;2.254;2023-07-29T05:48:19;20.45;73.95
75961;SHT30;64644;48.914;2.254;2023-07-29T05:50:44;20.42;73.90
75961;SHT30;64644;48.914;2.254;2023-07-29T05:53:10;20.42;73.87
75961;SHT30;64644;48.914;2.254;2023-07-29T05:55:35;20.44;73.87
75961;SHT30;64644;48.914;2.254;2023-07-29T05:58:00;20.48;73.89
75961;SHT30;64644;48.914;2.254;2023-07-29T06:00:26;20.49;73.84
75961;SHT30;64644;48.914;2.254;2023-07-29T06:02:51;20.49;73.78
75961;SHT30;64644;48.914;2.254;2023-07-29T06:05:16;20.53;73.81
75961;SHT30;64644;48.914;2.254;2023-07-29T06:07:42;20.59;73.78
75961;SHT30;64644;48.914;2.254;2023-07-29T06:10:13;20.62;73.60
75961;SHT30;64644;48.914;2.254;2023-07-29T06:12:38;20.63;73.45
75961;SHT30;64644;48.914;2.254;2023-07-29T06:15:04;20.66;73.36
75961;SHT30;64644;48.914;2.254;2023-07-29T06:17:30;20.73;73.40
75961;SHT30;64644;48.914;2.254;2023-07-29T06:19:55;20.76;73.21
75961;SHT30;64644;48.914;2.254;2023-07-29T06:22:20;20.76;73.11
75961;SHT30;64644;48.914;2.254;2023-07-29T06:24:46;20.77;73.05
75961;SHT30;64644;48.914;2.254;2023-07-29T06:27:11;20.77;73.09
75961;SHT30;64644;48.914;2.254;2023-07-29T06:29:36;20.76;72.96
75961;SHT30;64644;48.914;2.254;2023-07-29T06:32:02;20.79;73.01
75961;SHT30;64644;48.914;2.254;2023-07-29T06:34:27;20.79;72.90
75961;SHT30;64644;48.914;2.254;2023-07-29T06:36:53;20.84;72.92
75961;SHT30;64644;48.914;2.254;2023-07-29T06:39:18;20.90;72.83
75961;SHT30;64644;48.914;2.254;2023-07-29T06:41:43;20.91;72.70
75961;SHT30;64644;48.914;2.254;2023-07-29T06:44:09;20.94;72.63
75961;SHT30;64644;48.914;2.254;2023-07-29T06:46:34;20.89;72.57
75961;SHT30;64644;48.914;2.254;2023-07-29T06:48:59;20.93;72.59
75961;SHT30;64644;48.914;2.254;2023-07-29T06:51:25;20.93;72.60
75961;SHT30;64644;48.914;2.254;2023-07-29T06:53:50;20.97;72.47
75961;SHT30;64644;48.914;2.254;2023-07-29T06:56:15;20.94;72.29
75961;SHT30;64644;48.914;2.254;2023-07-29T06:58:41;21.00;72.38
75961;SHT30;64644;48.914;2.254;2023-07-29T07:01:06;21.01;72.32
75961;SHT30;64644;48.914;2.254;2023-07-29T07:03:32;21.06;72.28
75961;SHT30;64644;48.914;2.254;2023-07-29T07:05:57;21.14;72.16
75961;SHT30;64644;48.914;2.254;2023-07-29T07:08:22;21.20;72.01
75961;SHT30;64644;48.914;2.254;2023-07-29T07:10:48;21.28;71.92
75961;SHT30;64644;48.914;2.254;2023-07-29T07:13:13;21.35;71.78
75961;SHT30;64644;48.914;2.254;2023-07-29T07:15:38;21.42;71.53
75961;SHT30;64644;48.914;2.254;2023-07-29T07:18:04;21.48;71.28
75961;SHT30;64644;48.914;2.254;2023-07-29T07:20:29;21.48;71.11
75961;SHT30;64644;48.914;2.254;2023-07-29T07:22:54;21.51;71.01
75961;SHT30;64644;48.914;2.254;2023-07-29T07:25:20;21.53;71.07
75961;SHT30;64644;48.914;2.254;2023-07-29T07:27:46;21.56;71.00
75961;SHT30;64644;48.914;2.254;2023-07-29T07:30:11;21.56;71.03
75961;SHT30;64644;48.914;2.254;2023-07-29T07:32:37;21.55;70.94
75961;SHT30;64644;48.914;2.254;2023-07-29T07:35:02;21.55;70.94
75961;SHT30;64644;48.914;2.254;2023-07-29T07:37:27;21.53;70.91
75961;SHT30;64644;48.914;2.254;2023-07-29T07:39:53;21.55;70.80
75961;SHT30;64644;48.914;2.254;2023-07-29T07:42:18;21.59;70.88
75961;SHT30;64644;48.914;2.254;2023-07-29T07:44:43;21.66;70.78
75961;SHT30;64644;48.914;2.254;2023-07-29T07:47:09;21.73;70.77
75961;SHT30;64644;48.914;2.254;2023-07-29T07:49:34;21.75;70.68
75961;SHT30;64644;48.914;2.254;2023-07-29T07:51:59;21.83;70.66
75961;SHT30;64644;48.914;2.254;2023-07-29T07:54:25;21.87;70.54
75961;SHT30;64644;48.914;2.254;2023-07-29T07:56:50;21.89;70.34
75961;SHT30;64644;48.914;2.254;2023-07-29T07:59:15;21.98;70.35
75961;SHT30;64644;48.914;2.254;2023-07-29T08:01:41;22.04;70.28
75961;SHT30;64644;48.914;2.254;2023-07-29T08:04:06;22.08;70.30
75961;SHT30;64644;48.914;2.254;2023-07-29T08:06:32;22.13;70.14
75961;SHT30;64644;48.914;2.254;2023-07-29T08:08:58;22.15;69.92
75961;SHT30;64644;48.914;2.254;2023-07-29T08:11:24;22.18;69.87
75961;SHT30;64644;48.914;2.254;2023-07-29T08:13:49;22.20;69.75
75961;SHT30;64644;48.914;2.254;2023-07-29T08:16:14;22.27;69.61
75961;SHT30;64644;48.914;2.254;2023-07-29T08:18:40;22.22;69.46
75961;SHT30;64644;48.914;2.254;2023-07-29T08:21:05;22.22;69.37
75961;SHT30;64644;48.914;2.254;2023-07-29T08:23:32;22.25;69.36
75961;SHT30;64644;48.914;2.254;2023-07-29T08:25:59;22.31;69.37
75961;SHT30;64644;48.914;2.254;2023-07-29T08:28:31;22.32;69.27
75961;SHT30;64644;48.914;2.254;2023-07-29T08:30:57;22.28;69.07
75961;SHT30;64644;48.914;2.254;2023-07-29T08:33:22;22.30;69.05
75961;SHT30;64644;48.914;2.254;2023-07-29T08:35:47;22.30;69.02
75961;SHT30;64644;48.914;2.254;2023-07-29T08:38:13;22.32;68.96
75961;SHT30;64644;48.914;2.254;2023-07-29T08:40:43;22.38;68.86
75961;SHT30;64644;48.914;2.254;2023-07-29T08:43:12;22.35;68.83
75961;SHT30;64644;48.914;2.254;2023-07-29T08:45:39;22.37;68.94
75961;SHT30;64644;48.914;2.254;2023-07-29T08:48:08;22.41;68.74
75961;SHT30;64644;48.914;2.254;2023-07-29T08:50:36;22.52;68.51
75961;SHT30;64644;48.914;2.254;2023-07-29T08:53:04;22.65;68.46
75961;SHT30;64644;48.914;2.254;2023-07-29T08:55:29;22.75;68.29
75961;SHT30;64644;48.914;2.254;2023-07-29T08:57:57;22.75;67.94
75961;SHT30;64644;48.914;2.254;2023-07-29T09:00:23;22.72;67.79
75961;SHT30;64644;48.914;2.254;2023-07-29T09:02:48;22.75;67.85
75961;SHT30;64644;48.914;2.254;2023-07-29T09:05:13;22.80;67.58
75961;SHT30;64644;48.914;2.254;2023-07-29T09:07:40;22.85;67.41
75961;SHT30;64644;48.914;2.254;2023-07-29T09:10:08;22.94;67.39
75961;SHT30;64644;48.914;2.254;2023-07-29T09:12:35;23.03;67.21
75961;SHT30;64644;48.914;2.254;2023-07-29T09:15:00;23.11;67.18
75961;SHT30;64644;48.914;2.254;2023-07-29T09:17:25;23.24;67.01
75961;SHT30;64644;48.914;2.254;2023-07-29T09:19:51;23.39;66.81
75961;SHT30;64644;48.914;2.254;2023-07-29T09:22:20;23.54;66.56
75961;SHT30;64644;48.914;2.254;2023-07-29T09:24:46;23.69;66.35
75961;SHT30;64644;48.914;2.254;2023-07-29T09:27:28;23.79;66.07
75961;SHT30;64644;48.914;2.254;2023-07-29T09:29:55;23.87;65.94
75961;SHT30;64644;48.914;2.254;2023-07-29T09:32:22;23.92;65.71
75961;SHT30;64644;48.914;2.254;2023-07-29T09:34:48;23.90;65.49
75961;SHT30;64644;48.914;2.254;2023-07-29T09:37:17;23.87;65.34
75961;SHT30;64644;48.914;2.254;2023-07-29T09:39:47;23.89;65.14
75961;SHT30;64644;48.914;2.254;2023-07-29T09:42:20;23.90;65.28
75961;SHT30;64644;48.914;2.254;2023-07-29T09:44:46;23.86;65.18
75961;SHT30;64644;48.914;2.254;2023-07-29T09:47:21;23.86;64.79
75961;SHT30;64644;48.914;2.254;2023-07-29T09:49:47;23.89;64.82
75961;SHT30;64644;48.914;2.254;2023-07-29T09:52:15;23.87;64.75
75961;SHT30;64644;48.914;2.254;2023-07-29T09:54:42;23.80;64.68
75961;SHT30;64644;48.914;2.254;2023-07-29T09:57:08;23.73;64.92
75961;SHT30;64644;48.914;2.254;2023-07-29T09:59:34;23.75;64.85
75961;SHT30;64644;48.914;2.254;2023-07-29T10:01:59;23.86;64.93
75961;SHT30;64644;48.914;2.254;2023-07-29T10:04:25;23.93;64.83
75961;SHT30;64644;48.914;2.254;2023-07-29T10:06:52;24.00;64.65
75961;SHT30;64644;48.914;2.254;2023-07-29T10:09:18;24.07;64.60
75961;SHT30;64644;48.914;2.254;2023-07-29T10:11:45;24.07;64.60
75961;SHT30;64644;48.914;2.254;2023-07-29T10:14:11;24.10;64.53
75961;SHT30;64644;48.914;2.254;2023-07-29T10:16:37;24.14;64.51
75961;SHT30;64644;48.914;2.254;2023-07-29T10:19:07;24.18;64.54
75961;SHT30;64644;48.914;2.254;2023-07-29T10:21:33;24.18;64.42
75961;SHT30;64644;48.914;2.254;2023-07-29T10:24:05;24.22;64.46
75961;SHT30;64644;48.914;2.254;2023-07-29T10:26:31;24.24;64.52
75961;SHT30;64644;48.914;2.254;2023-07-29T10:28:59;24.22;64.62
75961;SHT30;64644;48.914;2.254;2023-07-29T10:31:31;24.16;64.80
75961;SHT30;64644;48.914;2.254;2023-07-29T10:33:57;24.13;64.85
75961;SHT30;64644;48.914;2.254;2023-07-29T10:36:23;24.09;64.87
75961;SHT30;64644;48.914;2.254;2023-07-29T10:38:49;24.06;64.72
75961;SHT30;64644;48.914;2.254;2023-07-29T10:41:15;24.07;64.85
75961;SHT30;64644;48.914;2.254;2023-07-29T10:43:40;24.06;65.02
75961;SHT30;64644;48.914;2.254;2023-07-29T10:46:22;24.00;65.04
75961;SHT30;64644;48.914;2.254;2023-07-29T10:51:35;23.94;65.06
75961;SHT30;64644;48.914;2.254;2023-07-29T10:54:03;23.94;65.03
75961;SHT30;64644;48.914;2.254;2023-07-29T10:56:34;24.00;65.14
75961;SHT30;64644;48.914;2.254;2023-07-29T11:01:57;24.16;65.33
75961;SHT30;64644;48.914;2.254;2023-07-29T11:04:28;24.21;65.32
75961;SHT30;64644;48.914;2.254;2023-07-29T11:17:34;24.37;64.95
75961;SHT30;64644;48.914;2.254;2023-07-29T11:20:01;24.37;65.03
75961;SHT30;64644;48.914;2.254;2023-07-29T11:22:30;24.37;65.06
75961;SHT30;64644;48.914;2.254;2023-07-29T11:24:55;24.44;64.95
75961;SHT30;64644;48.914;2.254;2023-07-29T11:27:21;24.51;64.68
75961;SHT30;64644;48.914;2.254;2023-07-29T11:29:47;24.54;64.63
75961;SHT30;64644;48.914;2.254;2023-07-29T11:32:13;24.55;64.51
75961;SHT30;64644;48.914;2.254;2023-07-29T11:34:38;24.68;64.62
75961;SHT30;64644;48.914;2.254;2023-07-29T11:37:05;24.86;64.38
75961;SHT30;64644;48.914;2.254;2023-07-29T11:39:32;24.93;64.26
75961;SHT30;64644;48.914;2.254;2023-07-29T11:41:57;25.14;64.27
75961;SHT30;64644;48.914;2.254;2023-07-29T11:44:23;25.34;64.17
75961;SHT30;64644;48.914;2.254;2023-07-29T11:46:49;25.52;63.59
75961;SHT30;64644;48.914;2.254;2023-07-29T11:49:15;25.66;63.36
75961;SHT30;64644;48.914;2.254;2023-07-29T11:51:41;25.76;63.11
75961;SHT30;64644;48.914;2.254;2023-07-29T11:54:08;25.85;63.16
75961;SHT30;64644;48.914;2.254;2023-07-29T11:56:34;25.97;62.75
75961;SHT30;64644;48.914;2.254;2023-07-29T11:59:01;26.16;62.72
75961;SHT30;64644;48.914;2.254;2023-07-29T12:01:28;26.31;62.45
75961;SHT30;64644;48.914;2.254;2023-07-29T12:03:55;26.44;62.13
75961;SHT30;64644;48.914;2.254;2023-07-29T12:06:21;26.59;61.69
75961;SHT30;64644;48.914;2.254;2023-07-29T12:08:46;26.78;61.63
75961;SHT30;64644;48.914;2.254;2023-07-29T12:11:12;26.94;61.42
75961;SHT30;64644;48.914;2.254;2023-07-29T12:13:38;27.08;61.01
75961;SHT30;64644;48.914;2.254;2023-07-29T12:16:03;27.03;60.69
75961;SHT30;64644;48.914;2.254;2023-07-29T12:18:32;26.99;60.51
75961;SHT30;64644;48.914;2.254;2023-07-29T12:20:59;27.00;60.47
75961;SHT30;64644;48.914;2.254;2023-07-29T12:23:25;27.03;60.02
75961;SHT30;64644;48.914;2.254;2023-07-29T12:25:57;27.26;59.94
75961;SHT30;64644;48.914;2.254;2023-07-29T12:28:23;27.34;59.57
75961;SHT30;64644;48.914;2.254;2023-07-29T12:30:55;27.35;59.39
75961;SHT30;64644;48.914;2.254;2023-07-29T12:33:35;27.15;59.24
75961;SHT30;64644;48.914;2.254;2023-07-29T12:36:01;27.04;59.45
75961;SHT30;64644;48.914;2.254;2023-07-29T12:38:27;26.97;59.59
75961;SHT30;64644;48.914;2.254;2023-07-29T12:40:52;26.93;59.87
75961;SHT30;64644;48.914;2.254;2023-07-29T12:43:18;26.83;59.44
75961;SHT30;64644;48.914;2.254;2023-07-29T12:45:43;26.73;59.71
75961;SHT30;64644;48.914;2.254;2023-07-29T12:48:09;26.62;59.83
75961;SHT30;64644;48.914;2.254;2023-07-29T12:50:35;26.56;60.13
75961;SHT30;64644;48.914;2.254;2023-07-29T12:53:01;26.53;60.60
75961;SHT30;64644;48.914;2.254;2023-07-29T12:55:26;26.53;60.73
75961;SHT30;64644;48.914;2.254;2023-07-29T12:57:51;26.53;60.82
75961;SHT30;64644;48.914;2.254;2023-07-29T13:00:17;26.44;60.57
75961;SHT30;64644;48.914;2.254;2023-07-29T13:02:42;26.47;60.35
75961;SHT30;64644;48.914;2.254;2023-07-29T13:05:09;26.60;60.27
75961;SHT30;64644;48.914;2.254;2023-07-29T13:07:36;26.68;60.02
75961;SHT30;64644;48.914;2.254;2023-07-29T13:10:02;26.73;59.91
75961;SHT30;64644;48.914;2.254;2023-07-29T13:12:28;26.87;59.94
75961;SHT30;64644;48.914;2.254;2023-07-29T13:14:53;27.08;59.55
75961;SHT30;64644;48.914;2.254;2023-07-29T13:17:19;27.14;59.20
75961;SHT30;64644;48.914;2.254;2023-07-29T13:19:44;27.21;58.74
75961;SHT30;64644;48.914;2.254;2023-07-29T13:22:09;27.24;58.75
75961;SHT30;64644;48.914;2.254;2023-07-29T13:24:35;27.15;58.46
75961;SHT30;64644;48.914;2.254;2023-07-29T13:27:00;27.21;58.40
75961;SHT30;64644;48.914;2.254;2023-07-29T13:29:25;27.27;58.60
75961;SHT30;64644;48.914;2.254;2023-07-29T13:31:50;27.15;58.32
75961;SHT30;64644;48.914;2.254;2023-07-29T13:34:16;27.03;58.07
75961;SHT30;64644;48.914;2.254;2023-07-29T13:36:42;27.03;58.38
75961;SHT30;64644;48.914;2.254;2023-07-29T13:39:07;27.26;57.93
75961;SHT30;64644;48.914;2.254;2023-07-29T13:41:32;27.52;58.16
75961;SHT30;64644;48.914;2.254;2023-07-29T13:43:58;27.67;57.89
75961;SHT30;64644;48.914;2.254;2023-07-29T13:46:23;27.85;57.54
75961;SHT30;64644;48.914;2.254;2023-07-29T13:48:48;27.93;56.89
75961;SHT30;64644;48.914;2.254;2023-07-29T13:51:14;27.88;56.71
75961;SHT30;64644;48.914;2.254;2023-07-29T13:53:39;27.99;56.55
75961;SHT30;64644;48.914;2.254;2023-07-29T13:56:05;28.14;56.32
75961;SHT30;64644;48.914;2.254;2023-07-29T13:58:30;28.35;55.98
75961;SHT30;64644;48.914;2.254;2023-07-29T14:00:59;28.53;55.29
75961;SHT30;64644;48.914;2.254;2023-07-29T14:03:25;29.07;55.01
75961;SHT30;64644;48.914;2.254;2023-07-29T14:05:50;29.63;53.53
75961;SHT30;64644;48.914;2.254;2023-07-29T14:08:15;30.09;52.25
75961;SHT30;64644;48.914;2.254;2023-07-29T14:10:41;30.71;52.10
75961;SHT30;64644;48.914;2.254;2023-07-29T14:13:06;32.14;49.99
75961;SHT30;64644;48.914;2.254;2023-07-29T14:15:31;31.65;48.40
75961;SHT30;64644;48.914;2.254;2023-07-29T14:17:58;30.62;48.90
75961;SHT30;64644;48.914;2.254;2023-07-29T14:20:23;29.86;50.24
75961;SHT30;64644;48.914;2.254;2023-07-29T14:22:49;29.34;51.54
75961;SHT30;64644;48.914;2.254;2023-07-29T14:25:15;28.92;52.48
75961;SHT30;64644;48.914;2.254;2023-07-29T14:27:40;28.59;53.12
75961;SHT30;64644;48.914;2.254;2023-07-29T14:30:06;28.31;53.77
75961;SHT30;64644;48.914;2.254;2023-07-29T14:32:32;28.07;54.06
75961;SHT30;64644;48.914;2.254;2023-07-29T14:34:58;27.92;54.31
75961;SHT30;64644;48.914;2.254;2023-07-29T14:37:23;27.74;54.71
75961;SHT30;64644;48.914;2.254;2023-07-29T14:39:48;27.69;54.96
75961;SHT30;64644;48.914;2.254;2023-07-29T14:42:14;27.83;54.79
75961;SHT30;64644;48.914;2.254;2023-07-29T14:44:40;27.85;54.94
75961;SHT30;64644;48.914;2.254;2023-07-29T14:47:07;27.72;54.95
75961;SHT30;64644;48.914;2.254;2023-07-29T14:49:33;27.56;55.21
75961;SHT30;64644;48.914;2.254;2023-07-29T14:51:58;27.42;55.59
75961;SHT30;64644;48.914;2.254;2023-07-29T14:54:23;27.24;55.75
75961;SHT30;64644;48.914;2.254;2023-07-29T14:56:49;26.83;60.43
75961;SHT30;64644;48.914;2.254;2023-07-29T14:59:14;25.89;76.31
75961;SHT30;64644;48.914;2.254;2023-07-29T15:01:40;25.25;75.25
75961;SHT30;64644;48.914;2.254;2023-07-29T15:04:05;24.93;75.55
75961;SHT30;64644;48.914;2.254;2023-07-29T15:06:30;24.76;74.81
75961;SHT30;64644;48.914;2.254;2023-07-29T15:08:56;24.49;74.53
75961;SHT30;64644;48.914;2.254;2023-07-29T15:11:21;24.37;74.70
75961;SHT30;64644;48.914;2.254;2023-07-29T15:13:46;24.24;74.42
75961;SHT30;64644;48.914;2.254;2023-07-29T15:16:12;24.11;73.74
75961;SHT30;64644;48.914;2.254;2023-07-29T15:18:37;24.01;73.98
75961;SHT30;64644;48.914;2.254;2023-07-29T15:21:03;23.93;74.65
75961;SHT30;64644;48.914;2.254;2023-07-29T15:23:28;23.99;74.17
75961;SHT30;64644;48.914;2.254;2023-07-29T15:25:54;23.97;73.86
75961;SHT30;64644;48.914;2.254;2023-07-29T15:28:20;23.96;73.67
75961;SHT30;64644;48.914;2.254;2023-07-29T15:30:45;24.04;72.14
75961;SHT30;64644;48.914;2.254;2023-07-29T15:33:10;24.17;71.89
75961;SHT30;64644;48.914;2.254;2023-07-29T15:35:37;24.32;71.13
75961;SHT30;64644;48.914;2.254;2023-07-29T15:38:04;24.45;71.45
75961;SHT30;64644;48.914;2.254;2023-07-29T15:40:29;24.55;71.65
75961;SHT30;64644;48.914;2.254;2023-07-29T15:42:55;24.63;71.55
75961;SHT30;64644;48.914;2.254;2023-07-29T15:45:20;24.79;70.27